KDOV/DOV METAR and TAF weather

Enter ICAO airport designator
Station Type Date Time Source
KDOV METAR 2023/02/05 13:55 UTC NOAA

KDOV 051355Z AUTO 21012KT 10SM CLR 03/M08 A3026 RMK AO2 SLP251 T00311083


Station Type Date Time Source
KDOV Decoded METAR 2023/02/05 13:55 UTC NOAA

Dover Air Force Base, DE, United States (KDOV) 39-08N 075-28W
Feb 05, 2023 - 08:55 AM EST / 2023.02.05 1355 UTC
Wind: from the SSW (210 degrees) at 14 MPH (12 KT):0
Visibility: 10 mile(s):0
Sky conditions: clear
Temperature: 37.6 F (3.1 C)
Dew Point: 17.1 F (-8.3 C)
Relative Humidity: 42%
Pressure (altimeter): 30.26 in. Hg (1024 hPa)
ob: KDOV 051355Z AUTO 21012KT 10SM CLR 03/M08 A3026 RMK AO2 SLP251 T00311083
cycle: 14

Station Type Date Time Source
KDOV TAF 2023/02/05 08:07 UTC NOAA

TAF KDOV 050800Z 0508/0614 22012KT 9999 SKC QNH3030INS
BECMG 0514/0515 22012G20KT 9999 SCT150 QNH3008INS
BECMG 0602/0603 23009KT 6000 BR BKN020 QNH3006INS
BECMG 0604/0605 25006KT 4800 BR BKN010 QNH3003INS
BECMG 0608/0609 31009KT 6000 BR BKN020 QNH3003INS TX10/0519Z TNM02/0508Z

Example: see airport list